If you wish to contribute or participate in the discussions about articles you are invited to join SKYbrary as a registered user

 Actions

Lulea/Kallax

From SKYbrary Wiki

ESPA
Airport
ICAO: ESPA
Summary
Name Lulea/Kallax
Region Europe
Territory Sweden SE.gif
Location Lulea, Sweden
Serving
Coordinates 65° 32' 36.00" N, 22° 7' 24.00" E
Runways
Designator Length Width Surface ROPS
14/32 3350 m10,990.814 ft <br /> 45 m147.638 ft <br /> ASP yes/yes


METAR
Observation ESPA 241720Z 21006KT CAVOK 20/12 Q1013
Station Lulea / Kallax
Date/Time 24 June 2021 17:20:00
Wind direction 210°
Wind speed 06 kts
Lowest cloud amount clouds and visibility OK
Temperature 20°C
Dew point 12°C
Humidity 60%
QNH 1013 hPa
Weather condition n/a


Luleå Airport

ICAO: ESPA IATA: LLA

Description

Airport serving northern Sweden.

Climatology

Subarctic climate (Köppen climate classification Dfc) - long, usually very cold winters, and short, cool to mild summers.

Maps

Terrain

Loading map...

Airport Layout

Loading map...



Accidents & Serious Incidents at or in vicinity of ESPA

None on SKYbrary